Time;durP1;ratioP1;P1;durP2;ratioP2;P2;SDS_P1;SDS_P2;PMS_P1;PMS_P2;Temp;Humidity;BMP_temperature;BMP_pressure;BME280_temperature;BME280_humidity;BME280_pressure;Samples;Min_cycle;Max_cycle;Signal;HPM_P1;HPM_P2
2022/07/03 00:03:09;;;;;;;6.60;5.63;;;23.30;99.90;;;;;;6220454;23;20506;-96
2022/07/03 00:11:45;;;;;;;6.10;5.03;;;22.30;99.90;;;;;;6224981;23;20234;-96
2022/07/03 00:14:16;;;;;;;5.63;5.13;;;22.60;99.90;;;;;;6223259;23;20606;-96
2022/07/03 00:16:52;;;;;;;5.43;4.93;;;23.20;99.90;;;;;;6225577;23;20212;-96
2022/07/03 00:19:24;;;;;;;5.53;5.03;;;22.90;99.90;;;;;;6224082;23;20183;-96
2022/07/03 00:24:46;;;;;;;6.10;5.50;;;23.40;99.90;;;;;;6226002;23;20176;-96
2022/07/03 00:27:21;;;;;;;5.40;4.90;;;23.30;99.90;;;;;;6230278;23;20190;-96
2022/07/03 00:29:55;;;;;;;5.43;4.93;;;22.90;99.90;;;;;;6251096;23;20176;-96
2022/07/03 00:32:33;;;;;;;5.43;4.90;;;23.20;99.90;;;;;;6242786;23;20198;-96
2022/07/03 00:35:19;;;;;;;4.83;4.37;;;23.30;99.90;;;;;;6242543;23;20168;-96
2022/07/03 00:37:52;;;;;;;9.40;4.97;;;23.10;99.90;;;;;;6243609;23;20180;-96
2022/07/03 00:40:30;;;;;;;6.27;4.13;;;23.30;99.90;;;;;;6242792;23;20175;-95
2022/07/03 00:43:05;;;;;;;6.57;4.53;;;23.40;99.90;;;;;;6242879;23;20198;-96
2022/07/03 00:45:39;;;;;;;5.17;4.67;;;23.30;99.90;;;;;;6240346;23;20195;-96
2022/07/03 00:48:16;;;;;;;5.40;4.90;;;23.20;99.90;;;;;;6242703;23;20152;-96
2022/07/03 00:50:52;;;;;;;4.93;4.53;;;23.30;99.90;;;;;;6234770;23;20164;-96
2022/07/03 00:53:31;;;;;;;5.13;4.63;;;23.70;99.90;;;;;;6233524;23;20179;-96
2022/07/03 00:56:06;;;;;;;4.93;4.43;;;24.10;99.90;;;;;;6231728;23;20194;-96
2022/07/03 00:58:45;;;;;;;4.60;4.20;;;24.50;99.90;;;;;;6230815;23;20255;-96
2022/07/03 01:04:31;;;;;;;5.00;4.53;;;24.00;99.90;;;;;;6227165;23;20626;-96
2022/07/03 01:07:07;;;;;;;4.97;4.47;;;23.50;99.90;;;;;;6231058;23;20165;-96
2022/07/03 01:09:53;;;;;;;5.20;4.40;;;23.40;99.90;;;;;;6230281;23;20196;-96
2022/07/03 01:12:29;;;;;;;4.70;4.30;;;23.60;99.90;;;;;;6222477;23;20198;-96
2022/07/03 01:15:13;;;;;;;4.20;3.80;;;23.60;99.90;;;;;;6225454;23;20190;-96
2022/07/03 01:20:47;;;;;;;5.47;4.37;;;22.70;99.90;;;;;;6234934;23;20176;-96
2022/07/03 01:23:33;;;;;;;5.03;4.20;;;22.80;99.90;;;;;;6236192;23;20184;-96
2022/07/03 01:26:12;;;;;;;4.30;3.90;;;23.20;99.90;;;;;;6228588;23;20184;-96
2022/07/03 01:28:49;;;;;;;4.30;3.90;;;23.50;99.90;;;;;;6230434;23;20176;-96
2022/07/03 01:31:25;;;;;;;5.30;4.23;;;23.50;99.90;;;;;;6231055;23;20164;-96
2022/07/03 01:33:58;;;;;;;5.23;3.93;;;23.20;99.90;;;;;;6227186;23;20161;-96
2022/07/03 01:36:34;;;;;;;5.93;4.43;;;23.00;99.90;;;;;;6225851;23;20176;-95
2022/07/03 01:39:09;;;;;;;4.47;4.07;;;23.40;99.90;;;;;;6226748;23;20214;-96
2022/07/03 01:41:49;;;;;;;4.33;3.77;;;24.00;99.90;;;;;;6221769;23;20251;-96
2022/07/03 01:44:27;;;;;;;4.97;3.90;;;24.30;99.90;;;;;;6224055;23;20176;-96
2022/07/03 01:47:00;;;;;;;4.77;4.30;;;24.40;99.90;;;;;;6225550;23;20198;-96
2022/07/03 01:49:36;;;;;;;5.27;3.60;;;24.90;99.90;;;;;;6225651;23;20176;-96
2022/07/03 01:52:11;;;;;;;4.47;4.07;;;25.00;99.90;;;;;;6223111;23;20238;-96
2022/07/03 01:55:06;;;;;;;5.20;4.20;;;25.10;99.90;;;;;;6225859;23;20234;-96
2022/07/03 01:57:48;;;;;;;4.20;3.90;;;25.20;99.90;;;;;;6224468;23;20207;-96
2022/07/03 02:00:21;;;;;;;4.10;3.70;;;25.60;99.90;;;;;;6224698;23;20173;-96
2022/07/03 02:02:59;;;;;;;4.00;3.53;;;25.80;99.90;;;;;;6226027;23;20251;-96
2022/07/03 02:05:37;;;;;;;4.07;3.70;;;25.60;99.90;;;;;;6226675;23;20623;-96
2022/07/03 02:08:20;;;;;;;5.13;3.80;;;25.80;99.90;;;;;;6229200;23;20176;-96
2022/07/03 02:11:05;;;;;;;5.30;4.33;;;25.30;99.90;;;;;;6235362;23;20164;-96
2022/07/03 02:13:46;;;;;;;4.13;3.83;;;24.10;99.90;;;;;;6242868;23;20176;-96
2022/07/03 02:16:23;;;;;;;5.07;4.07;;;24.10;99.90;;;;;;6242731;23;20299;-96
2022/07/03 02:18:59;;;;;;;4.50;4.10;;;24.70;99.90;;;;;;6241602;23;20199;-96
2022/07/03 02:21:36;;;;;;;4.00;3.60;;;25.00;99.90;;;;;;6232813;23;20188;-96
2022/07/03 02:24:21;;;;;;;3.93;3.63;;;25.30;99.90;;;;;;6231288;23;20270;-96
2022/07/03 02:29:53;;;;;;;4.03;3.73;;;23.20;99.90;;;;;;6231071;23;20268;-96
2022/07/03 02:32:33;;;;;;;4.17;3.77;;;23.40;99.90;;;;;;6232858;23;20211;-96
2022/07/03 02:38:05;;;;;;;4.63;4.10;;;22.90;99.90;;;;;;6223527;23;20223;-96
2022/07/03 02:40:42;;;;;;;4.17;3.77;;;22.60;99.90;;;;;;6236465;23;20195;-96
2022/07/03 02:43:23;;;;;;;4.27;3.80;;;22.30;99.90;;;;;;6235900;23;20174;-96
2022/07/03 02:49:29;;;;;;;4.47;4.07;;;21.50;99.90;;;;;;6234999;23;20196;-96
2022/07/03 02:52:13;;;;;;;4.30;4.00;;;21.00;99.90;;;;;;6232740;23;20164;-96
2022/07/03 02:55:00;;;;;;;4.93;3.87;;;21.00;99.90;;;;;;6242099;23;20199;-96
2022/07/03 02:57:45;;;;;;;4.00;3.70;;;20.70;99.90;;;;;;6242844;23;20188;-96
2022/07/03 03:00:32;;;;;;;4.00;3.70;;;20.30;99.90;;;;;;6242083;23;20179;-96
2022/07/03 03:03:10;;;;;;;4.23;3.83;;;20.30;99.90;;;;;;6242779;23;20164;-96
2022/07/03 03:11:36;;;;;;;4.60;4.20;;;20.30;99.90;;;;;;6320242;22;20174;-96
2022/07/03 03:14:13;;;;;;;4.60;4.03;;;20.20;99.90;;;;;;6315766;22;20184;-96
2022/07/03 03:16:50;;;;;;;3.90;3.60;;;20.00;99.90;;;;;;6314807;22;20541;-96
2022/07/03 03:19:25;;;;;;;4.80;3.83;;;20.00;99.90;;;;;;6314044;22;20197;-96
2022/07/03 03:22:05;;;;;;;4.10;3.70;;;20.00;99.90;;;;;;6313891;22;20177;-96
2022/07/03 03:24:38;;;;;;;4.60;3.73;;;20.00;99.90;;;;;;6316545;22;20170;-96
2022/07/03 03:27:12;;;;;;;3.93;3.53;;;20.10;99.90;;;;;;6316962;22;20174;-96
2022/07/03 03:32:42;;;;;;;4.60;4.17;;;19.80;99.90;;;;;;6323525;22;20175;-96
2022/07/03 03:38:34;;;;;;;4.20;3.80;;;19.50;99.90;;;;;;6325768;22;20213;-96
2022/07/03 03:44:23;;;;;;;4.40;4.00;;;19.30;99.90;;;;;;6321218;22;20174;-96
2022/07/03 04:03:43;;;;;;;3.93;3.60;;;19.00;99.90;;;;;;6232328;22;20244;-96
2022/07/03 04:09:42;;;;;;;4.43;4.03;;;18.90;99.90;;;;;;6322982;22;20184;-96
2022/07/03 04:12:23;;;;;;;6.60;3.80;;;18.80;99.90;;;;;;6320276;22;20190;-96
2022/07/03 04:15:03;;;;;;;4.50;4.10;;;18.70;99.90;;;;;;6322062;22;20200;-96
2022/07/03 04:17:56;;;;;;;4.37;3.63;;;18.60;99.90;;;;;;6318088;22;20244;-96
2022/07/03 04:20:55;;;;;;;4.30;3.90;;;18.60;99.90;;;;;;6316924;22;20274;-96
2022/07/03 04:23:41;;;;;;;4.50;4.10;;;18.50;99.90;;;;;;6314171;22;20475;-96
2022/07/03 04:26:14;;;;;;;4.67;4.27;;;18.50;99.90;;;;;;6313480;22;20204;-96
2022/07/03 04:28:46;;;;;;;4.30;3.83;;;18.50;99.90;;;;;;6316767;22;20170;-96
2022/07/03 04:31:19;;;;;;;4.10;3.70;;;18.50;99.90;;;;;;6312959;22;20178;-96
2022/07/03 04:33:56;;;;;;;5.33;4.40;;;18.40;99.90;;;;;;6314993;22;20202;-96
2022/07/03 04:36:32;;;;;;;4.57;4.17;;;18.30;99.90;;;;;;6315656;22;20240;-96
2022/07/03 04:41:49;;;;;;;5.80;4.10;;;18.30;99.90;;;;;;6313819;22;20216;-96
2022/07/03 04:44:22;;;;;;;4.83;4.43;;;18.20;99.90;;;;;;6316835;22;20162;-96
2022/07/03 04:46:57;;;;;;;5.07;4.57;;;18.10;99.90;;;;;;6315120;22;20171;-96
2022/07/03 04:49:31;;;;;;;4.97;4.47;;;18.00;99.90;;;;;;6314200;22;20174;-96
2022/07/03 04:52:08;;;;;;;4.73;4.33;;;17.90;99.90;;;;;;6314819;22;20175;-96
2022/07/03 05:00:30;;;;;;;6.70;4.40;;;18.00;99.90;;;;;;6324033;22;20174;-96
2022/07/03 05:08:59;;;;;;;5.73;4.20;;;18.00;99.90;;;;;;6333531;22;20167;-96
2022/07/03 05:11:31;;;;;;;4.93;4.40;;;18.00;99.90;;;;;;6333311;22;20174;-96
2022/07/03 05:14:07;;;;;;;4.10;3.80;;;18.10;99.90;;;;;;6335723;22;20157;-96
2022/07/03 05:19:41;;;;;;;4.67;4.27;;;17.90;99.90;;;;;;6335586;22;20301;-96
2022/07/03 05:22:17;;;;;;;4.63;4.23;;;17.90;99.90;;;;;;6335372;22;20188;-96
2022/07/03 05:24:56;;;;;;;4.93;4.37;;;17.90;99.90;;;;;;6335710;22;20205;-96
2022/07/03 05:27:29;;;;;;;5.07;4.67;;;17.80;99.90;;;;;;6335401;22;20165;-96
2022/07/03 05:30:00;;;;;;;4.90;4.43;;;17.80;99.90;;;;;;6329274;22;20174;-96
2022/07/03 05:32:32;;;;;;;5.20;4.70;;;17.70;99.90;;;;;;6327472;22;20170;-96
2022/07/03 05:35:04;;;;;;;5.77;3.97;;;17.80;99.90;;;;;;6317220;22;20174;-96
2022/07/03 05:37:44;;;;;;;5.33;4.50;;;17.70;99.90;;;;;;6315753;22;20593;-96
2022/07/03 05:40:18;;;;;;;5.00;4.50;;;17.70;99.90;;;;;;6315312;22;20220;-96
2022/07/03 05:42:53;;;;;;;5.00;4.50;;;17.60;99.90;;;;;;6315600;22;20223;-96
2022/07/03 05:45:37;;;;;;;4.43;3.77;;;17.70;99.90;;;;;;6314525;22;20731;-96
2022/07/03 05:48:08;;;;;;;4.70;4.30;;;17.70;99.90;;;;;;6314931;22;20524;-96
2022/07/03 05:50:41;;;;;;;4.57;4.17;;;17.70;99.90;;;;;;6318875;22;20174;-96
2022/07/03 05:53:15;;;;;;;5.00;4.40;;;17.70;99.90;;;;;;6317764;22;20174;-96
2022/07/03 05:55:52;;;;;;;3.97;3.53;;;17.70;99.90;;;;;;6318198;22;20178;-96
2022/07/03 05:58:26;;;;;;;4.50;3.90;;;17.70;99.90;;;;;;6318486;22;20197;-96
2022/07/03 06:01:04;;;;;;;4.00;3.60;;;17.60;99.90;;;;;;6324456;22;20620;-96
2022/07/03 06:03:39;;;;;;;4.57;4.17;;;17.60;99.90;;;;;;6322969;22;20182;-96
2022/07/03 06:06:24;;;;;;;4.07;3.50;;;17.50;99.90;;;;;;6324592;22;20170;-96
2022/07/03 06:08:59;;;;;;;4.37;3.97;;;17.50;99.90;;;;;;6322893;22;20174;-96
2022/07/03 06:11:33;;;;;;;4.97;3.93;;;17.50;99.90;;;;;;6321081;22;20166;-96
2022/07/03 06:14:05;;;;;;;7.47;3.73;;;17.50;99.90;;;;;;6322123;22;20170;-96
2022/07/03 06:16:43;;;;;;;6.70;3.93;;;17.50;99.90;;;;;;6323128;22;20201;-96
2022/07/03 06:19:16;;;;;;;7.37;3.43;;;17.50;99.90;;;;;;6320457;22;20201;-96
2022/07/03 06:27:42;;;;;;;5.50;3.43;;;17.50;99.90;;;;;;6326405;22;20193;-96
2022/07/03 06:30:24;;;;;;;4.70;3.53;;;17.40;99.90;;;;;;6322709;22;20185;-96
2022/07/03 06:32:56;;;;;;;4.50;3.70;;;17.40;99.90;;;;;;6318337;22;20239;-96
2022/07/03 06:41:18;;;;;;;4.37;3.60;;;17.50;99.90;;;;;;6325338;22;20198;-96
2022/07/03 06:43:58;;;;;;;4.00;3.30;;;17.60;99.90;;;;;;6322095;22;20181;-96
2022/07/03 06:49:35;;;;;;;4.40;3.70;;;17.40;99.90;;;;;;6325104;22;20242;-96
2022/07/03 06:52:09;;;;;;;4.30;3.53;;;17.20;99.90;;;;;;6314714;22;20181;-96
2022/07/03 06:54:43;;;;;;;5.37;4.00;;;17.20;99.90;;;;;;6317707;22;20178;-96
2022/07/03 06:57:18;;;;;;;3.80;3.10;;;17.30;99.90;;;;;;6319567;22;20216;-96
2022/07/03 07:00:07;;;;;;;5.10;3.83;;;17.30;99.90;;;;;;6315628;22;20262;-96
2022/07/03 07:02:50;;;;;;;4.43;4.03;;;17.30;99.90;;;;;;6326214;22;20201;-96
2022/07/03 07:05:57;;;;;;;4.17;3.43;;;17.30;99.90;;;;;;6317281;22;20178;-96
2022/07/03 07:08:58;;;;;;;3.93;3.60;;;17.40;99.90;;;;;;6329097;22;20209;-96
2022/07/03 07:24:40;;;;;;;4.03;3.57;;;17.10;99.90;;;;;;6334079;22;20196;-96
2022/07/03 07:39:35;;;;;;;4.83;3.77;;;16.80;99.90;;;;;;6314132;22;20198;-96
2022/07/03 07:42:11;;;;;;;4.87;3.60;;;16.70;99.90;;;;;;6311985;22;20174;-96
2022/07/03 07:44:45;;;;;;;5.27;3.77;;;16.70;99.90;;;;;;6314056;22;20180;-96
2022/07/03 07:47:17;;;;;;;3.67;3.27;;;16.70;99.90;;;;;;6314290;22;20173;-96
2022/07/03 07:49:51;;;;;;;4.83;3.73;;;16.70;99.90;;;;;;6315457;22;20175;-96
2022/07/03 07:52:24;;;;;;;4.33;3.80;;;16.70;99.90;;;;;;6316463;22;20179;-96
2022/07/03 07:55:06;;;;;;;4.07;3.70;;;16.70;99.90;;;;;;6313522;22;20196;-96
2022/07/03 07:57:38;;;;;;;4.13;3.77;;;16.80;99.90;;;;;;6313523;22;20506;-96
2022/07/03 08:00:13;;;;;;;5.30;4.13;;;16.70;99.90;;;;;;6315562;22;20202;-96
2022/07/03 08:05:39;;;;;;;7.73;3.60;;;16.70;99.90;;;;;;6318255;22;20179;-96
2022/07/03 08:08:17;;;;;;;4.87;4.20;;;16.70;99.90;;;;;;6315947;22;20177;-96
2022/07/03 08:13:39;;;;;;;6.03;3.80;;;16.60;99.90;;;;;;6320419;22;20174;-96
2022/07/03 08:16:17;;;;;;;4.80;4.30;;;16.40;99.90;;;;;;6329366;22;20159;-96
2022/07/03 08:18:54;;;;;;;4.47;3.43;;;16.50;99.90;;;;;;6334072;22;20181;-96
2022/07/03 08:27:18;;;;;;;4.70;4.13;;;16.40;99.90;;;;;;6331922;22;20171;-96
2022/07/03 08:29:53;;;;;;;7.57;4.80;;;16.20;99.90;;;;;;6333548;22;20182;-96
2022/07/03 08:32:25;;;;;;;5.23;4.23;;;16.20;99.90;;;;;;6318979;22;20219;-96
2022/07/03 08:35:03;;;;;;;6.20;4.60;;;16.20;99.90;;;;;;6316910;22;20175;-96
2022/07/03 08:37:40;;;;;;;5.27;4.77;;;16.20;99.90;;;;;;6315239;22;20177;-96
2022/07/03 08:40:13;;;;;;;5.00;4.50;;;16.20;99.90;;;;;;6312318;22;20218;-96
2022/07/03 08:42:48;;;;;;;5.47;4.67;;;16.10;99.90;;;;;;6312896;22;20624;-96
2022/07/03 08:45:21;;;;;;;5.33;4.83;;;16.00;99.90;;;;;;6313388;22;20709;-96
2022/07/03 08:47:59;;;;;;;5.83;4.40;;;15.80;99.90;;;;;;6317452;22;20220;-96
2022/07/03 08:53:14;;;;;;;6.20;4.10;;;15.70;99.90;;;;;;6325829;22;20235;-96
2022/07/03 09:06:56;;;;;;;5.27;4.20;;;15.50;99.90;;;;;;6293049;22;20268;-96
2022/07/03 09:09:46;;;;;;;4.73;3.80;;;15.40;99.90;;;;;;6284788;22;20200;-96
2022/07/03 09:12:53;;;;;;;5.93;4.60;;;15.40;99.90;;;;;;6329404;22;20214;-96
2022/07/03 09:41:59;;;;;;;5.13;4.03;;;15.30;99.90;;;;;;6291292;22;20221;-96
2022/07/03 09:47:34;;;;;;;5.97;4.13;;;15.20;99.90;;;;;;6328487;22;20268;-96
2022/07/03 09:50:22;;;;;;;5.03;4.27;;;15.10;99.90;;;;;;6318407;22;20174;-96
2022/07/03 09:58:34;;;;;;;3.70;3.27;;;15.20;99.90;;;;;;6296477;22;20189;-96
2022/07/03 10:01:22;;;;;;;5.97;3.83;;;15.20;99.90;;;;;;6285746;22;20207;-96
2022/07/03 11:15:36;;;;;;;4.43;4.03;;;14.20;99.90;;;;;;6266222;22;20216;-96
2022/07/03 11:18:20;;;;;;;4.50;3.93;;;14.20;99.90;;;;;;6305652;22;20223;-96
2022/07/03 11:21:27;;;;;;;5.00;3.93;;;14.20;99.90;;;;;;6311786;22;20664;-96
2022/07/03 11:24:14;;;;;;;6.33;3.67;;;14.20;99.90;;;;;;6312879;22;20236;-96
2022/07/03 11:26:46;;;;;;;5.27;4.07;;;14.10;99.90;;;;;;6313159;22;20174;-96
2022/07/03 11:29:32;;;;;;;5.67;3.87;;;14.20;99.90;;;;;;6312801;22;20185;-96
2022/07/03 11:32:57;;;;;;;5.70;4.10;;;14.20;99.90;;;;;;6314536;22;20608;-96
2022/07/03 11:35:52;;;;;;;4.10;3.70;;;14.10;99.90;;;;;;6313318;22;20178;-96
2022/07/03 11:38:29;;;;;;;5.13;3.90;;;14.10;99.90;;;;;;6312734;22;20174;-96
2022/07/03 11:41:02;;;;;;;6.13;3.50;;;14.10;99.90;;;;;;6314920;22;20186;-96
2022/07/03 11:43:37;;;;;;;4.23;3.80;;;14.10;99.90;;;;;;6312220;22;20174;-96
2022/07/03 11:46:10;;;;;;;5.23;3.87;;;14.20;99.90;;;;;;6317717;22;20170;-96
2022/07/03 11:48:44;;;;;;;4.13;3.73;;;14.20;99.90;;;;;;6312687;22;20194;-96
2022/07/03 11:51:24;;;;;;;4.37;3.97;;;14.20;99.90;;;;;;6314174;22;20674;-96
2022/07/03 11:53:56;;;;;;;5.43;3.23;;;14.30;99.90;;;;;;6314912;22;20182;-96
2022/07/03 11:56:29;;;;;;;4.50;3.97;;;14.30;99.90;;;;;;6310667;22;20174;-96
2022/07/03 11:59:12;;;;;;;4.23;3.83;;;14.40;99.90;;;;;;6311733;22;20174;-96
2022/07/03 12:01:52;;;;;;;4.23;3.83;;;14.30;99.90;;;;;;6314220;22;20221;-96
2022/07/03 12:04:25;;;;;;;4.67;3.77;;;14.30;99.90;;;;;;6315241;22;20174;-96
2022/07/03 12:07:03;;;;;;;4.53;4.13;;;14.20;99.90;;;;;;6315522;22;20178;-96
2022/07/03 12:09:46;;;;;;;4.37;3.97;;;14.30;99.90;;;;;;6313182;22;20227;-96
2022/07/03 12:12:18;;;;;;;5.30;4.13;;;14.20;99.90;;;;;;6311612;22;20185;-96
2022/07/03 12:14:52;;;;;;;4.97;4.07;;;14.20;99.90;;;;;;6317067;22;20217;-96
2022/07/03 12:17:26;;;;;;;6.13;4.00;;;14.20;99.90;;;;;;6315880;22;20177;-96
2022/07/03 12:20:00;;;;;;;4.63;4.17;;;14.20;99.90;;;;;;6315298;22;20228;-96
2022/07/03 12:22:35;;;;;;;5.50;3.87;;;14.20;99.90;;;;;;6313265;22;20197;-96
2022/07/03 12:25:09;;;;;;;7.00;4.77;;;14.20;99.90;;;;;;6316394;22;20162;-96
2022/07/03 12:27:42;;;;;;;4.90;4.17;;;14.10;99.90;;;;;;6315927;22;20182;-96
2022/07/03 12:30:24;;;;;;;6.90;4.40;;;14.20;99.90;;;;;;6313292;22;20197;-96
2022/07/03 12:32:58;;;;;;;6.63;4.60;;;14.30;99.90;;;;;;6313496;22;20581;-96
2022/07/03 12:35:31;;;;;;;6.33;5.30;;;14.40;99.90;;;;;;6313719;22;20197;-96
2022/07/03 12:38:12;;;;;;;6.37;5.70;;;14.20;99.90;;;;;;6314919;22;20678;-96
2022/07/03 12:40:44;;;;;;;6.57;5.30;;;14.10;99.90;;;;;;6313860;22;20194;-96
2022/07/03 12:43:22;;;;;;;6.97;5.67;;;14.10;99.90;;;;;;6314266;22;20623;-96
2022/07/03 12:45:54;;;;;;;6.13;5.17;;;14.20;99.90;;;;;;6312759;22;20674;-96
2022/07/03 12:48:27;;;;;;;6.80;6.17;;;14.30;99.90;;;;;;6313138;22;20194;-96
2022/07/03 12:50:58;;;;;;;7.27;5.37;;;14.20;99.90;;;;;;6312678;22;20254;-96
2022/07/03 12:53:34;;;;;;;7.07;5.13;;;14.10;99.90;;;;;;6314752;22;20173;-96
2022/07/03 12:56:11;;;;;;;6.37;5.70;;;14.20;99.90;;;;;;6317823;22;20170;-96
2022/07/03 13:01:36;;;;;;;6.13;5.53;;;14.10;99.90;;;;;;6316664;22;20214;-96
2022/07/03 13:04:14;;;;;;;7.43;5.37;;;13.90;99.90;;;;;;6317078;22;20279;-96
2022/07/03 13:09:43;;;;;;;5.33;4.83;;;13.90;99.90;;;;;;6332442;22;20178;-96
2022/07/03 13:12:29;;;;;;;5.53;4.70;;;13.80;99.90;;;;;;6332786;22;20163;-96
2022/07/03 13:15:01;;;;;;;7.37;5.00;;;13.70;99.90;;;;;;6330288;22;20234;-96
2022/07/03 13:18:03;;;;;;;7.37;5.67;;;13.70;99.90;;;;;;6316165;22;20178;-96
2022/07/03 13:20:36;;;;;;;6.17;5.00;;;13.80;99.90;;;;;;6313141;22;20558;-96
2022/07/03 13:23:09;;;;;;;6.57;4.50;;;13.90;99.90;;;;;;6314348;22;20276;-96
2022/07/03 13:25:44;;;;;;;6.33;5.10;;;13.90;99.90;;;;;;6313666;22;20178;-96
2022/07/03 13:28:16;;;;;;;9.27;5.63;;;14.00;99.90;;;;;;6313622;22;20231;-96
2022/07/03 13:30:48;;;;;;;7.37;5.20;;;14.00;99.90;;;;;;6314377;22;20219;-95
2022/07/03 13:33:20;;;;;;;8.50;5.27;;;13.90;99.90;;;;;;6316141;22;20246;-96
2022/07/03 13:35:52;;;;;;;6.83;4.93;;;13.90;99.90;;;;;;6322623;22;20235;-96
2022/07/03 13:38:24;;;;;;;7.27;4.70;;;14.00;99.90;;;;;;6324462;22;20180;-96
2022/07/03 13:40:57;;;;;;;7.30;4.83;;;14.00;99.90;;;;;;6331926;22;20167;-96
2022/07/03 13:43:29;;;;;;;6.33;5.17;;;14.10;99.90;;;;;;6335083;22;20170;-96
2022/07/03 13:46:02;;;;;;;5.67;4.73;;;13.90;99.90;;;;;;6328085;22;20165;-96
2022/07/03 13:48:35;;;;;;;5.70;5.10;;;13.80;99.90;;;;;;6335287;22;20185;-96
2022/07/03 13:51:07;;;;;;;5.37;4.57;;;13.80;99.90;;;;;;6334946;22;20185;-96
2022/07/03 13:53:38;;;;;;;4.87;4.23;;;13.80;99.90;;;;;;6334848;22;20182;-96
2022/07/03 13:56:12;;;;;;;5.23;4.73;;;13.80;99.90;;;;;;6334181;22;20215;-96
2022/07/03 13:58:44;;;;;;;5.73;4.47;;;13.70;99.90;;;;;;6315010;22;20550;-96
2022/07/03 14:01:21;;;;;;;5.57;4.97;;;13.60;99.90;;;;;;6315544;22;20162;-96
2022/07/03 14:03:56;;;;;;;5.70;4.93;;;13.40;99.90;;;;;;6315124;22;20178;-96
2022/07/03 14:06:29;;;;;;;8.03;4.87;;;13.40;99.90;;;;;;6314575;22;20174;-96
2022/07/03 14:09:01;;;;;;;5.33;4.60;;;13.40;99.90;;;;;;6313944;22;20171;-96
2022/07/03 14:11:39;;;;;;;5.53;4.93;;;13.50;99.90;;;;;;6313002;22;20179;-96
2022/07/03 14:14:11;;;;;;;7.87;5.17;;;13.40;99.90;;;;;;6312977;22;20627;-96
2022/07/03 14:16:44;;;;;;;5.93;4.80;;;13.50;99.90;;;;;;6313783;22;20183;-96
2022/07/03 14:19:20;;;;;;;6.00;4.83;;;13.60;99.90;;;;;;6313916;22;20174;-96
2022/07/03 14:21:53;;;;;;;4.97;4.23;;;13.60;99.90;;;;;;6313294;22;20190;-96
2022/07/03 14:24:25;;;;;;;6.33;5.20;;;13.60;99.90;;;;;;6313967;22;20174;-96
2022/07/03 14:32:36;;;;;;;7.73;5.97;;;13.30;99.90;;;;;;6313924;22;20240;-96
2022/07/03 14:35:15;;;;;;;6.93;5.97;;;13.30;99.90;;;;;;6311236;22;20201;-96
2022/07/03 14:37:46;;;;;;;7.47;6.50;;;13.20;99.90;;;;;;6315011;22;20193;-96
2022/07/03 14:40:28;;;;;;;8.73;5.93;;;13.30;99.90;;;;;;6315780;22;20171;-96
2022/07/03 14:43:03;;;;;;;7.93;5.97;;;13.30;99.90;;;;;;6317869;22;20202;-96
2022/07/03 14:45:37;;;;;;;7.43;4.97;;;13.30;99.90;;;;;;6316416;22;20565;-96
2022/07/03 14:48:12;;;;;;;5.17;4.67;;;13.30;99.90;;;;;;6316681;22;20181;-96
2022/07/03 14:50:48;;;;;;;6.47;5.00;;;13.40;99.90;;;;;;6322634;22;20519;-96
2022/07/03 14:53:22;;;;;;;5.80;4.87;;;13.30;99.90;;;;;;6333890;22;20216;-96
2022/07/03 14:55:56;;;;;;;5.93;5.17;;;13.20;99.90;;;;;;6332910;22;20209;-96
2022/07/03 14:58:33;;;;;;;7.40;5.13;;;13.10;99.90;;;;;;6333695;22;20222;-96
2022/07/03 15:01:13;;;;;;;6.03;5.20;;;13.00;99.90;;;;;;6332635;22;20181;-95
2022/07/03 15:03:57;;;;;;;5.80;5.17;;;13.00;99.90;;;;;;6332686;22;20198;-91
2022/07/03 15:06:30;;;;;;;5.73;5.13;;;13.10;99.90;;;;;;6333554;22;20174;-96
2022/07/03 15:09:05;;;;;;;8.00;5.50;;;13.00;99.90;;;;;;6333351;22;20235;-95
2022/07/03 15:14:45;;;;;;;5.67;4.90;;;13.10;99.90;;;;;;6287537;22;20174;-96
2022/07/03 15:17:19;;;;;;;6.63;5.60;;;13.00;99.90;;;;;;6316957;22;20190;-96
2022/07/03 15:19:52;;;;;;;6.03;5.43;;;13.00;99.90;;;;;;6316642;22;20181;-96
2022/07/03 15:22:26;;;;;;;8.27;6.10;;;12.90;99.90;;;;;;6317333;22;20182;-95
2022/07/03 15:25:00;;;;;;;5.33;4.47;;;13.00;99.90;;;;;;6316477;22;20220;-95
2022/07/03 15:27:33;;;;;;;5.83;5.23;;;13.00;99.90;;;;;;6316685;22;20184;-94
2022/07/03 15:30:09;;;;;;;5.23;4.73;;;13.00;99.90;;;;;;6316555;22;20166;-96
2022/07/03 15:32:42;;;;;;;6.20;5.60;;;13.10;99.90;;;;;;6315595;22;20208;-95
2022/07/03 15:35:22;;;;;;;6.40;5.80;;;13.00;99.90;;;;;;6318039;22;20219;-94
2022/07/03 15:41:02;;;;;;;6.13;5.53;;;13.20;99.90;;;;;;6317458;22;20210;-95
2022/07/03 15:43:49;;;;;;;6.53;5.80;;;13.40;99.90;;;;;;6319105;22;20256;-95
2022/07/03 15:46:50;;;;;;;6.13;5.27;;;13.30;99.90;;;;;;6316485;22;20178;-96
2022/07/03 15:49:28;;;;;;;5.50;4.83;;;13.30;99.90;;;;;;6317285;22;20174;-96
2022/07/03 15:52:17;;;;;;;6.37;5.10;;;13.20;99.90;;;;;;6312851;22;20178;-96
2022/07/03 15:54:59;;;;;;;7.30;5.33;;;13.30;99.90;;;;;;6313960;22;20178;-96
2022/07/03 15:57:40;;;;;;;6.60;5.17;;;13.30;99.90;;;;;;6314289;22;20574;-96
2022/07/03 16:00:14;;;;;;;5.60;4.80;;;13.30;99.90;;;;;;6315332;22;20162;-96
2022/07/03 16:03:12;;;;;;;6.27;5.43;;;13.30;99.90;;;;;;6317049;22;20198;-94
2022/07/03 16:05:47;;;;;;;7.47;4.97;;;13.30;99.90;;;;;;6325515;22;20175;-96
2022/07/03 16:08:21;;;;;;;6.13;5.53;;;13.40;99.90;;;;;;6315682;22;20170;-96
2022/07/03 16:10:53;;;;;;;6.53;5.53;;;13.40;99.90;;;;;;6315350;22;20167;-96
2022/07/03 16:13:28;;;;;;;7.13;6.10;;;13.30;99.90;;;;;;6315966;22;20240;-96
2022/07/03 16:16:01;;;;;;;6.67;5.93;;;13.30;99.90;;;;;;6316870;22;20238;-96
2022/07/03 16:18:37;;;;;;;7.03;6.33;;;13.40;99.90;;;;;;6314379;22;20245;-95
2022/07/03 16:24:06;;;;;;;7.37;6.53;;;13.10;99.90;;;;;;6316350;22;20201;-94
2022/07/03 16:26:39;;;;;;;7.63;6.83;;;13.00;99.90;;;;;;6318020;22;20246;-95
2022/07/03 16:29:10;;;;;;;7.27;6.50;;;13.10;99.90;;;;;;6318862;22;20196;-96
2022/07/03 16:31:43;;;;;;;6.77;5.90;;;13.20;99.90;;;;;;6318078;22;20228;-96
2022/07/03 16:34:26;;;;;;;8.57;6.30;;;12.90;99.90;;;;;;6322854;22;20196;-95
2022/07/03 16:37:00;;;;;;;7.57;6.47;;;12.80;99.90;;;;;;6325836;22;20165;-96
2022/07/03 16:39:36;;;;;;;7.90;6.70;;;12.80;99.90;;;;;;6324859;22;20251;-95
2022/07/03 16:42:12;;;;;;;9.73;6.93;;;12.80;99.90;;;;;;6315459;22;20178;-95
2022/07/03 16:44:47;;;;;;;9.53;6.60;;;12.80;99.90;;;;;;6313071;22;20189;-96
2022/07/03 16:47:21;;;;;;;8.50;6.80;;;12.80;99.90;;;;;;6313055;22;20227;-94
2022/07/03 16:49:59;;;;;;;8.90;7.20;;;12.80;99.90;;;;;;6317010;22;20174;-96
2022/07/03 16:52:32;;;;;;;7.53;6.60;;;12.90;99.90;;;;;;6317112;22;20224;-96
2022/07/03 16:55:07;;;;;;;9.17;6.77;;;12.90;99.90;;;;;;6314881;22;20239;-96
2022/07/03 16:57:44;;;;;;;7.77;6.90;;;13.00;99.90;;;;;;6312031;22;20267;-95
2022/07/03 17:00:18;;;;;;;6.97;5.97;;;13.10;99.90;;;;;;6316209;22;20197;-96
2022/07/03 17:02:52;;;;;;;8.67;6.73;;;13.10;99.90;;;;;;6312647;22;20170;-94
2022/07/03 17:05:27;;;;;;;7.30;6.40;;;12.90;99.90;;;;;;6312712;22;20170;-96
2022/07/03 17:08:02;;;;;;;8.47;6.30;;;13.00;99.90;;;;;;6313235;22;20181;-95
2022/07/03 17:10:38;;;;;;;8.60;6.60;;;12.90;99.90;;;;;;6314358;22;20170;-95
2022/07/03 17:13:24;;;;;;;8.57;6.93;;;13.00;99.90;;;;;;6313525;22;20174;-95
2022/07/03 17:16:03;;;;;;;9.30;6.63;;;13.00;99.90;;;;;;6314220;22;20174;-95
2022/07/03 17:18:49;;;;;;;8.43;6.93;;;13.10;99.90;;;;;;6314163;22;20182;-95
2022/07/03 17:21:28;;;;;;;8.37;6.53;;;13.20;99.90;;;;;;6313270;22;20198;-95
2022/07/03 17:24:02;;;;;;;8.63;7.43;;;13.40;99.90;;;;;;6314144;22;20193;-94
2022/07/03 17:26:35;;;;;;;7.43;6.40;;;13.50;99.90;;;;;;6313785;22;20672;-95
2022/07/03 17:29:07;;;;;;;8.03;5.97;;;13.80;99.90;;;;;;6316167;22;20178;-94
2022/07/03 17:31:44;;;;;;;10.70;6.50;;;14.00;99.90;;;;;;6313573;22;20616;-95
2022/07/03 17:34:18;;;;;;;7.53;6.43;;;14.30;99.90;;;;;;6314672;22;20248;-95
2022/07/03 17:36:53;;;;;;;8.67;7.37;;;14.50;99.90;;;;;;6315405;22;20166;-96
2022/07/03 17:39:26;;;;;;;11.07;7.27;;;14.50;99.90;;;;;;6315576;22;20546;-95
2022/07/03 17:42:02;;;;;;;7.93;6.53;;;14.40;99.90;;;;;;6319246;22;20235;-96
2022/07/03 17:44:37;;;;;;;10.00;6.63;;;14.40;99.90;;;;;;6332929;22;20202;-95
2022/07/03 17:47:10;;;;;;;7.73;6.50;;;14.20;99.90;;;;;;6334791;22;20740;-95
2022/07/03 17:49:49;;;;;;;9.40;6.60;;;14.20;99.90;;;;;;6334381;22;20194;-96
2022/07/03 17:52:26;;;;;;;7.30;6.60;;;14.10;99.90;;;;;;6334387;22;20198;-96
2022/07/03 17:55:02;;;;;;;7.00;6.30;;;13.90;99.90;;;;;;6320183;22;20198;-96
2022/07/03 17:57:40;;;;;;;10.23;7.77;;;13.70;99.90;;;;;;6335558;22;20170;-96
2022/07/03 18:00:13;;;;;;;8.87;7.10;;;13.70;99.90;;;;;;6333996;22;20162;-96
2022/07/03 18:02:46;;;;;;;10.27;7.60;;;13.80;99.90;;;;;;6335612;22;20193;-96
2022/07/03 18:05:19;;;;;;;8.30;7.37;;;13.80;99.90;;;;;;6334467;22;20202;-96
2022/07/03 18:08:11;;;;;;;9.37;7.17;;;13.90;99.90;;;;;;6326119;22;20201;-95